createdAt,value
2022-11-01T03:13:10.275Z,14.21
2022-11-01T03:15:58.876Z,14.21
2022-11-01T03:19:16.821Z,14.21
2022-11-01T03:21:56.622Z,14.24
2022-11-01T03:25:20.549Z,14.30
2022-11-01T03:37:22.288Z,14.38
2022-11-01T03:51:22.206Z,14.49
2022-11-01T03:53:56.033Z,14.59
2022-11-01T03:56:23.794Z,14.66
2022-11-01T04:01:33.567Z,14.65
2022-11-01T04:04:03.590Z,14.60
2022-11-01T04:06:30.171Z,14.57
2022-11-01T04:09:04.253Z,14.56
2022-11-01T04:11:56.525Z,14.53
2022-11-01T04:14:43.868Z,14.48
2022-11-01T04:17:31.007Z,14.40
2022-11-01T04:20:31.376Z,14.37
2022-11-01T04:23:16.453Z,14.33
2022-11-01T04:25:54.685Z,14.33
2022-11-01T04:28:23.107Z,14.36
2022-11-01T04:31:11.767Z,14.37
2022-11-01T04:33:42.870Z,14.36
2022-11-01T04:36:32.790Z,14.36
2022-11-01T04:39:21.662Z,14.32
2022-11-01T04:45:13.688Z,14.30
2022-11-01T04:50:45.718Z,14.27
2022-11-01T04:53:29.746Z,14.24
2022-11-01T04:56:00.030Z,14.22
2022-11-01T04:58:26.705Z,14.19
2022-11-01T05:00:53.976Z,14.15
2022-11-01T05:03:23.622Z,14.13
2022-11-01T05:05:59.958Z,14.17
2022-11-01T05:08:30.149Z,14.14
2022-11-01T05:10:56.973Z,14.10
2022-11-01T05:13:30.285Z,14.07
2022-11-01T05:16:18.375Z,14.02
2022-11-01T05:18:46.611Z,13.95
2022-11-01T05:21:13.137Z,13.92
2022-11-01T05:23:39.778Z,13.93
2022-11-01T05:26:08.384Z,13.88
2022-11-01T05:28:35.266Z,13.85
2022-11-01T05:31:01.820Z,13.80
2022-11-01T05:33:28.416Z,13.79
2022-11-01T05:35:55.039Z,13.73
2022-11-01T05:38:21.621Z,13.67
2022-11-01T05:40:48.503Z,13.61
2022-11-01T05:45:58.363Z,13.48
2022-11-01T05:48:28.564Z,13.42
2022-11-01T05:50:58.716Z,13.37
2022-11-01T05:56:31.437Z,13.28
2022-11-01T05:58:57.948Z,13.28
2022-11-01T06:01:50.554Z,13.29
2022-11-01T06:04:17.377Z,13.26
2022-11-01T06:06:43.926Z,13.23
2022-11-01T06:09:46.584Z,13.28
2022-11-01T06:13:24.213Z,13.27
2022-11-01T06:16:16.759Z,13.21
2022-11-01T06:19:47.499Z,13.20
2022-11-01T06:22:04.687Z,13.23
2022-11-01T06:30:47.691Z,13.15
2022-11-01T06:33:14.335Z,13.13
2022-11-01T06:35:40.859Z,13.11
2022-11-01T06:38:10.650Z,13.11
2022-11-01T06:40:37.293Z,13.08
2022-11-01T06:43:09.550Z,13.09
2022-11-01T06:51:41.248Z,12.93
2022-11-01T06:53:59.357Z,13.01
2022-11-01T06:54:09.653Z,12.91
2022-11-01T06:59:46.678Z,12.92
2022-11-01T07:02:14.709Z,12.91
2022-11-01T07:04:42.026Z,12.88
2022-11-01T07:07:08.627Z,12.88
2022-11-01T07:12:51.110Z,12.91
2022-11-01T07:15:18.215Z,12.91
2022-11-01T07:17:48.046Z,12.89
2022-11-01T07:20:14.572Z,12.88
2022-11-01T07:22:41.053Z,12.86
2022-11-01T07:25:07.624Z,12.85
2022-11-01T07:27:35.928Z,12.86
2022-11-01T07:30:04.647Z,12.85
2022-11-01T07:32:31.137Z,12.86
2022-11-01T07:35:00.045Z,12.87
2022-11-01T07:37:29.563Z,12.86
2022-11-01T07:39:56.294Z,12.87
2022-11-01T07:42:22.888Z,12.86
2022-11-01T07:44:49.462Z,12.85
2022-11-01T07:47:19.072Z,12.86
2022-11-01T07:49:45.713Z,12.87
2022-11-01T07:52:12.400Z,12.87
2022-11-01T07:54:39.024Z,12.87
2022-11-01T07:57:14.647Z,12.87
2022-11-01T07:59:41.247Z,12.87
2022-11-01T08:02:09.650Z,12.87
2022-11-01T08:04:36.637Z,12.88
2022-11-01T08:07:03.327Z,12.87
2022-11-01T08:09:29.851Z,12.88
2022-11-01T08:11:56.401Z,12.90
2022-11-01T08:14:23.056Z,12.93
2022-11-01T08:16:55.595Z,12.95
2022-11-01T08:19:22.489Z,12.96
2022-11-01T08:21:51.018Z,12.97
2022-11-01T08:24:17.796Z,12.99
2022-11-01T08:26:44.504Z,12.99
2022-11-01T08:29:11.139Z,13.01
2022-11-01T08:31:41.584Z,13.02
2022-11-01T08:34:10.874Z,13.02
2022-11-01T08:36:41.136Z,13.04
2022-11-01T08:41:37.192Z,13.06
2022-11-01T08:44:04.170Z,13.07
2022-11-01T08:46:30.773Z,13.08
2022-11-01T08:48:59.296Z,13.11
2022-11-01T08:51:27.324Z,13.14
2022-11-01T08:53:56.468Z,13.14
2022-11-01T08:56:24.927Z,13.15
2022-11-01T08:58:52.871Z,13.16
2022-11-01T09:01:21.189Z,13.16
2022-11-01T09:03:47.889Z,13.16
2022-11-01T09:06:14.455Z,13.16
2022-11-01T09:08:41.285Z,13.18
2022-11-01T09:11:08.121Z,13.19
2022-11-01T09:13:34.862Z,13.23
2022-11-01T09:16:06.781Z,13.27
2022-11-01T09:18:33.746Z,13.31
2022-11-01T09:21:00.846Z,13.34
2022-11-01T09:23:27.446Z,13.38
2022-11-01T09:26:07.076Z,13.38
2022-11-01T09:28:34.253Z,13.38
2022-11-01T09:31:19.851Z,13.42
2022-11-01T09:33:47.297Z,13.47
2022-11-01T09:36:13.938Z,13.53
2022-11-01T09:38:40.500Z,13.53
2022-11-01T09:41:32.807Z,13.54
2022-11-01T09:44:02.407Z,13.57
2022-11-01T09:46:34.553Z,13.65
2022-11-01T09:49:03.518Z,13.71
2022-11-01T09:51:30.416Z,13.75
2022-11-01T09:54:00.916Z,13.82
2022-11-01T09:56:31.478Z,13.83
2022-11-01T09:59:19.707Z,13.83
2022-11-01T10:02:20.729Z,13.85
2022-11-01T10:05:16.062Z,13.86
2022-11-01T10:07:48.250Z,13.86
2022-11-01T10:10:24.202Z,13.88
2022-11-01T10:13:32.291Z,13.90
2022-11-01T10:16:08.572Z,13.97
2022-11-01T10:18:44.643Z,13.99
2022-11-01T10:21:15.233Z,14.00
2022-11-01T10:23:51.697Z,14.02
2022-11-01T10:26:25.668Z,14.06
2022-11-01T10:29:03.593Z,14.08
2022-11-01T10:31:32.092Z,14.12
2022-11-01T10:34:03.834Z,14.16
2022-11-01T10:39:54.312Z,14.23
2022-11-01T10:42:56.961Z,14.26
2022-11-01T10:45:23.553Z,14.29
2022-11-01T10:48:16.878Z,14.32
2022-11-01T10:50:46.819Z,14.34
2022-11-01T10:53:20.525Z,14.35
2022-11-01T10:55:52.975Z,14.36
2022-11-01T10:58:55.387Z,14.38
2022-11-01T11:01:27.945Z,14.38
2022-11-01T11:06:51.995Z,14.43
2022-11-01T11:09:45.286Z,14.46
2022-11-01T11:15:35.603Z,14.54
2022-11-01T11:18:09.039Z,14.55
2022-11-01T11:20:38.382Z,14.58
2022-11-01T11:23:10.866Z,14.59
2022-11-01T11:25:39.638Z,14.60
2022-11-01T11:28:06.703Z,14.62
2022-11-01T11:30:58.464Z,14.63
2022-11-01T11:33:25.219Z,14.64
2022-11-01T11:35:55.679Z,14.65
2022-11-01T11:38:46.230Z,14.68
2022-11-01T11:41:27.440Z,14.70
2022-11-01T11:43:54.147Z,14.70
2022-11-01T11:46:25.032Z,14.71
2022-11-01T11:48:58.301Z,14.72
2022-11-01T11:51:28.594Z,14.74
2022-11-01T11:54:20.062Z,14.73
2022-11-01T11:56:47.808Z,14.71
2022-11-01T11:59:26.220Z,14.70
2022-11-01T12:02:04.582Z,14.71
2022-11-01T12:04:54.899Z,14.74
2022-11-01T12:07:30.494Z,14.77
2022-11-01T12:10:02.274Z,14.78
2022-11-01T12:12:32.703Z,14.82
2022-11-01T12:15:02.204Z,14.83
2022-11-01T12:17:35.166Z,14.85
2022-11-01T12:20:12.410Z,14.88
2022-11-01T12:22:44.658Z,14.90
2022-11-01T12:25:16.189Z,14.91
2022-11-01T12:28:02.038Z,14.94
2022-11-01T12:30:34.333Z,14.93
2022-11-01T12:33:23.128Z,14.93
2022-11-01T12:35:55.049Z,14.94
2022-11-01T12:38:27.886Z,14.97
2022-11-01T12:40:55.347Z,14.99
2022-11-01T12:43:58.669Z,15.00
2022-11-01T12:46:44.000Z,15.01
2022-11-01T12:49:22.152Z,15.01
2022-11-01T12:51:54.518Z,15.03
2022-11-01T12:54:27.463Z,15.02
2022-11-01T12:56:56.205Z,15.03
2022-11-01T12:59:28.378Z,15.02
2022-11-01T13:02:00.592Z,15.04
2022-11-01T13:04:34.202Z,15.05
2022-11-01T13:07:29.266Z,15.05
2022-11-01T13:10:14.310Z,15.06
2022-11-01T13:12:46.948Z,15.07
2022-11-01T13:15:21.798Z,15.10
2022-11-01T13:18:02.070Z,15.09
2022-11-01T13:20:53.122Z,15.08
2022-11-01T13:23:28.637Z,15.06
2022-11-01T13:26:06.597Z,15.08
2022-11-01T13:28:51.696Z,15.08
2022-11-01T13:32:32.750Z,15.09
2022-11-01T13:35:40.472Z,15.10
2022-11-01T13:38:28.423Z,15.10
2022-11-01T13:41:28.946Z,15.10
2022-11-01T13:44:02.807Z,15.09
2022-11-01T13:46:51.221Z,15.09
2022-11-01T13:49:44.888Z,15.10
2022-11-01T13:56:16.244Z,15.06
2022-11-01T13:58:55.055Z,15.09
2022-11-01T14:01:31.861Z,15.09
2022-11-01T14:04:33.453Z,15.06
2022-11-01T14:07:15.244Z,15.07
2022-11-01T14:09:45.123Z,15.05
2022-11-01T14:12:30.674Z,15.04
2022-11-01T14:15:13.633Z,15.05
2022-11-01T14:17:52.777Z,15.06
2022-11-01T14:20:21.974Z,15.02
2022-11-01T14:22:48.743Z,15.01
2022-11-01T14:25:15.280Z,14.99
2022-11-01T14:27:50.466Z,14.97
2022-11-01T14:30:24.348Z,14.95
2022-11-01T14:32:59.270Z,14.94
2022-11-01T14:35:35.661Z,14.94
2022-11-01T14:38:33.020Z,14.93
2022-11-01T14:41:05.137Z,14.93
2022-11-01T14:43:34.963Z,14.93
2022-11-01T14:46:03.149Z,14.90
2022-11-01T14:48:36.998Z,14.86
2022-11-01T14:51:21.817Z,14.84
2022-11-01T14:53:59.732Z,14.84
2022-11-01T14:56:40.891Z,14.81
2022-11-01T14:59:20.496Z,14.82
2022-11-01T15:01:50.807Z,14.81
2022-11-01T15:04:22.467Z,14.77
2022-11-01T15:06:49.715Z,14.78
2022-11-01T15:09:22.444Z,14.78
2022-11-01T15:11:51.348Z,14.75
2022-11-01T15:14:24.490Z,14.75
2022-11-01T15:16:52.051Z,14.74
2022-11-01T15:19:27.919Z,14.71
2022-11-01T15:22:01.060Z,14.68
2022-11-01T15:24:27.867Z,14.65
2022-11-01T15:26:54.536Z,14.64
2022-11-01T15:29:24.844Z,14.61
2022-11-01T15:31:58.172Z,14.57
2022-11-01T15:34:32.021Z,14.51
2022-11-01T15:37:10.375Z,14.48
2022-11-01T15:39:37.964Z,14.46
2022-11-01T15:42:15.593Z,14.41
2022-11-01T15:44:46.023Z,14.43
2022-11-01T15:47:20.575Z,14.43
2022-11-01T15:49:48.107Z,14.43
2022-11-01T15:52:18.855Z,14.42
2022-11-01T15:54:57.863Z,14.40
2022-11-01T15:57:40.460Z,14.40
2022-11-01T16:00:17.647Z,14.37
2022-11-01T16:02:54.654Z,14.35
2022-11-01T16:05:27.245Z,14.33
2022-11-01T16:07:54.092Z,14.31
2022-11-01T16:10:26.883Z,14.30
2022-11-01T16:12:54.758Z,14.28
2022-11-01T16:15:26.310Z,14.28
2022-11-01T16:17:55.854Z,14.27
2022-11-01T16:20:34.197Z,14.23
2022-11-01T16:23:04.248Z,14.21
2022-11-01T16:25:33.217Z,14.20
2022-11-01T16:28:09.357Z,14.20
2022-11-01T16:30:47.258Z,14.18
2022-11-01T16:33:20.851Z,14.16
2022-11-01T16:35:49.873Z,14.11
2022-11-01T16:38:27.115Z,14.04
2022-11-01T16:40:57.127Z,13.97
2022-11-01T16:43:27.240Z,13.97
2022-11-01T16:45:54.438Z,13.96
2022-11-01T16:48:27.714Z,13.96
2022-11-01T16:50:56.032Z,14.00
2022-11-01T16:53:25.045Z,14.01
2022-11-01T16:56:01.362Z,14.00
2022-11-01T16:58:32.774Z,14.01
2022-11-01T17:01:00.577Z,14.05
2022-11-01T17:03:28.067Z,14.05
2022-11-01T17:06:12.914Z,14.07
2022-11-01T17:08:41.950Z,14.12
2022-11-01T17:11:20.631Z,14.13
2022-11-01T17:13:47.231Z,14.13
2022-11-01T17:16:26.826Z,14.14
2022-11-01T17:18:57.617Z,14.16
2022-11-01T17:21:25.247Z,14.18
2022-11-01T17:23:52.800Z,14.18
2022-11-01T17:26:49.445Z,14.19
2022-11-01T17:29:27.292Z,14.21
2022-11-01T17:31:54.895Z,14.21
2022-11-01T17:34:21.469Z,14.21
2022-11-01T17:36:50.301Z,14.21
2022-11-01T17:39:17.605Z,14.23
2022-11-01T17:41:44.244Z,14.22
2022-11-01T17:44:12.105Z,14.22
2022-11-01T17:46:40.837Z,14.24
2022-11-01T17:49:07.430Z,14.26
2022-11-01T17:51:34.256Z,14.28
2022-11-01T17:54:00.772Z,14.26
2022-11-01T17:56:40.601Z,14.24
2022-11-01T17:59:08.679Z,14.22
2022-11-01T18:01:49.894Z,14.23
2022-11-01T18:04:16.943Z,14.24
2022-11-01T18:06:44.034Z,14.23
2022-11-01T18:09:25.648Z,14.22
2022-11-01T18:12:06.568Z,14.18
2022-11-01T18:17:48.488Z,14.17
2022-11-01T18:20:38.828Z,14.18
2022-11-01T18:23:11.811Z,14.16
2022-11-01T18:25:48.351Z,14.14
2022-11-01T18:28:35.083Z,14.15
2022-11-01T18:31:12.628Z,14.08
2022-11-01T18:33:50.896Z,14.04
2022-11-01T18:36:34.148Z,14.05
2022-11-01T18:39:21.113Z,14.03
2022-11-01T18:41:48.365Z,14.01
2022-11-01T18:44:14.924Z,13.99
2022-11-01T18:46:52.069Z,13.99
2022-11-01T18:49:18.741Z,14.00
2022-11-01T18:51:46.515Z,13.99
2022-11-01T18:54:20.975Z,13.97
2022-11-01T18:56:52.265Z,13.97
2022-11-01T18:59:29.592Z,13.99
2022-11-01T19:02:12.660Z,14.01
2022-11-01T19:04:42.701Z,14.02
2022-11-01T19:07:18.473Z,14.01
2022-11-01T19:09:56.420Z,14.02
2022-11-01T19:12:28.360Z,14.02
2022-11-01T19:14:59.654Z,13.98
2022-11-01T19:17:29.522Z,13.95
2022-11-01T19:19:57.434Z,13.92
2022-11-01T19:22:38.457Z,13.91
2022-11-01T19:25:22.776Z,13.94
2022-11-01T19:27:53.431Z,13.92
2022-11-01T19:30:24.709Z,13.93
2022-11-01T19:32:54.023Z,13.93
2022-11-01T19:35:22.648Z,13.93
2022-11-01T19:37:52.555Z,13.94
2022-11-01T19:40:27.991Z,13.94
2022-11-01T19:42:55.547Z,13.95
2022-11-01T19:45:23.976Z,13.94
2022-11-01T19:54:48.842Z,13.77
2022-11-01T19:56:51.800Z,13.70
2022-11-01T19:59:19.541Z,13.68
2022-11-01T20:01:49.566Z,13.60
2022-11-01T20:04:37.433Z,13.55
2022-11-01T20:07:37.897Z,13.50
2022-11-01T20:10:29.070Z,13.48
2022-11-01T20:15:47.414Z,13.44
2022-11-01T20:18:14.153Z,13.42
2022-11-01T20:20:46.672Z,13.43
2022-11-01T20:23:25.692Z,13.47
2022-11-01T20:25:53.183Z,13.48
2022-11-01T20:28:19.876Z,13.46
2022-11-01T20:30:47.818Z,13.42
2022-11-01T20:33:14.424Z,13.43
2022-11-01T20:35:42.380Z,13.41
2022-11-01T20:38:12.932Z,13.36
2022-11-01T20:40:43.714Z,13.33
2022-11-01T20:43:13.126Z,13.34
2022-11-01T20:48:23.396Z,13.34
2022-11-01T20:50:50.166Z,13.36
2022-11-01T20:53:17.006Z,13.36
2022-11-01T20:55:44.487Z,13.35
2022-11-01T20:58:44.603Z,13.32
2022-11-01T21:04:51.452Z,13.17
2022-11-01T21:07:18.081Z,13.13
2022-11-01T21:09:46.521Z,13.08
2022-11-01T21:12:26.270Z,13.04
2022-11-01T21:18:36.388Z,12.99
2022-11-01T21:21:28.826Z,12.93
2022-11-01T21:23:55.678Z,12.89
2022-11-01T21:26:52.096Z,12.89
2022-11-01T21:29:25.001Z,12.90
2022-11-01T21:31:51.703Z,12.87
2022-11-01T21:34:46.181Z,12.88
2022-11-01T21:37:13.537Z,12.88
2022-11-01T21:39:40.209Z,12.88
2022-11-01T21:42:28.630Z,12.86
2022-11-01T21:44:56.737Z,12.82
2022-11-01T21:47:26.779Z,12.82
2022-11-01T21:49:53.614Z,12.83
2022-11-01T21:55:00.867Z,12.78
2022-11-01T21:57:27.764Z,12.76
2022-11-01T21:59:54.428Z,12.74
2022-11-01T22:02:21.088Z,12.72
2022-11-01T22:04:47.666Z,12.67
2022-11-01T22:07:14.275Z,12.66
2022-11-01T22:09:40.908Z,12.66
2022-11-01T22:12:07.994Z,12.65
2022-11-01T22:14:35.199Z,12.64
2022-11-01T22:17:01.832Z,12.61
2022-11-01T22:19:28.438Z,12.56
2022-11-01T22:21:55.082Z,12.52
2022-11-01T22:24:22.785Z,12.51
2022-11-01T22:26:49.583Z,12.48
2022-11-01T22:29:16.071Z,12.43
2022-11-01T22:31:42.644Z,12.42
2022-11-01T22:34:09.190Z,12.43
2022-11-01T22:36:36.779Z,12.43
2022-11-01T22:39:24.254Z,12.43
2022-11-01T22:41:51.419Z,12.42
2022-11-01T22:44:25.403Z,12.45
2022-11-01T22:46:58.930Z,12.41
2022-11-01T22:49:31.235Z,12.40
2022-11-01T22:52:02.021Z,12.40
2022-11-01T22:54:39.947Z,12.39
2022-11-01T22:57:14.793Z,12.42
2022-11-01T22:59:46.837Z,12.42
2022-11-01T23:02:30.925Z,12.42
2022-11-01T23:05:20.508Z,12.40
2022-11-01T23:07:50.099Z,12.39
2022-11-01T23:10:29.205Z,12.39
2022-11-01T23:13:19.506Z,12.40
2022-11-01T23:15:49.336Z,12.37
2022-11-01T23:18:19.767Z,12.36
2022-11-01T23:20:56.274Z,12.36
2022-11-01T23:23:23.564Z,12.37
2022-11-01T23:25:50.957Z,12.36
2022-11-01T23:28:18.063Z,12.38
2022-11-01T23:30:46.415Z,12.36
2022-11-01T23:33:15.274Z,12.33
2022-11-01T23:35:44.323Z,12.32
2022-11-01T23:38:19.936Z,12.34
2022-11-01T23:40:46.911Z,12.33
2022-11-01T23:43:21.713Z,12.34
2022-11-01T23:45:48.686Z,12.33
2022-11-01T23:48:15.395Z,12.32
2022-11-01T23:50:42.441Z,12.32
2022-11-01T23:53:13.627Z,12.34
2022-11-01T23:55:45.154Z,12.31
2022-11-01T23:58:17.690Z,12.33
